+03,Max TemperatureF,Mean TemperatureF,Min TemperatureF,Max Dew PointF,MeanDew PointF,Min DewpointF,Max Humidity, Mean Humidity, Min Humidity, Max Sea Level PressureIn, Mean Sea Level PressureIn, Min Sea Level PressureIn, Max VisibilityMiles, Mean VisibilityMiles, Min VisibilityMiles, Max Wind SpeedMPH, Mean Wind SpeedMPH, Max Gust SpeedMPH,PrecipitationIn, CloudCover, Events, WindDirDegrees
2014-5-1,94,90,86,70,61,48,58,38,17,29.85,29.78,29.74,7,3,0,24,11,29,0.00,4,Thunderstorm,43
2014-5-2,96,90,84,73,64,55,66,42,20,29.82,29.74,29.71,7,6,4,13,7,20,0.00,6,,37
2014-5-3,100,92,84,72,63,54,62,40,14,29.78,29.74,29.68,7,6,5,25,11,33,0.00,4,Rain,350
2014-5-4,100,90,81,67,52,35,58,28,8,29.83,29.76,29.71,9,7,6,21,8,37,0.00,4,,312
2014-5-5,97,89,81,61,47,36,43,23,6,29.82,29.78,29.74,7,6,6,22,9,34,0.00,,,301
2014-5-6,98,88,79,73,58,43,79,40,14,29.87,29.81,29.77,9,7,6,10,6,,0.00,,,351
2014-5-7,101,89,77,77,61,43,83,48,8,29.83,29.78,29.74,9,6,5,13,5,,0.00,,,144
2014-5-8,99,89,79,79,69,55,84,56,17,29.82,29.76,29.71,9,6,5,16,6,,0.00,,,114
2014-5-9,103,91,79,77,63,43,83,45,7,29.84,29.77,29.71,7,5,4,14,4,,0.00,,,51
2014-5-10,101,90,80,68,58,52,52,31,13,29.75,29.69,29.65,7,4,3,16,7,,0.00,,,307
2014-5-11,104,96,87,70,61,52,55,33,11,29.76,29.70,29.65,6,4,2,17,8,,0.00,,,331
2014-5-12,108,97,86,79,62,52,70,35,11,29.80,29.73,29.68,6,4,2,15,6,,0.00,,,152
2014-5-13,107,96,86,77,65,50,62,39,10,29.75,29.70,29.65,5,4,4,16,7,,0.00,,,149
2014-5-14,99,92,86,66,55,41,49,29,10,29.81,29.73,29.65,9,6,4,28,14,34,0.00,3,Rain,340
2014-5-15,98,91,84,61,46,36,35,21,6,29.81,29.76,29.71,10,9,7,17,10,23,0.00,,,330
2014-5-16,100,90,80,68,54,39,58,31,9,29.81,29.75,29.68,10,9,7,15,6,,0.00,,,284
2014-5-17,101,90,80,70,57,43,62,34,10,29.81,29.77,29.71,10,9,9,16,7,,0.00,,,313
2014-5-18,101,90,78,70,62,36,70,45,5,29.84,29.79,29.77,9,7,6,16,5,,0.00,,,66
2014-5-19,99,90,81,77,69,60,75,53,22,29.86,29.82,29.77,7,6,6,13,6,,0.00,,,102
2014-5-20,97,88,80,77,71,57,79,59,23,29.88,29.80,29.74,9,7,6,13,4,,0.00,,,109
2014-5-21,96,89,82,79,74,64,79,60,38,29.83,29.77,29.74,9,6,4,12,7,,0.00,,,99
2014-5-22,100,92,83,79,72,64,84,54,32,29.83,29.77,29.74,6,4,4,12,6,,0.00,,,26
2014-5-23,107,96,84,73,64,52,66,36,11,29.78,29.72,29.68,9,7,6,10,5,,0.00,,,21
2014-5-24,111,100,89,73,53,43,42,21,7,29.77,29.71,29.68,7,7,7,10,5,,0.00,,,329
2014-5-25,110,100,90,77,60,43,63,28,9,29.75,29.71,29.68,7,6,5,12,5,,0.00,,,11
2014-5-26,110,100,91,70,62,52,44,28,9,29.75,29.70,29.65,10,8,6,16,10,,0.00,,,345
2014-5-27,108,100,91,66,59,46,43,25,8,29.75,29.71,29.68,10,9,9,13,8,,0.00,,,24
2014-5-28,117,104,91,77,59,43,56,27,5,29.74,29.68,29.65,9,7,2,74,5,,0.00,,,183
2014-5-29,109,100,90,73,61,46,55,29,9,29.75,29.70,29.65,10,7,6,22,10,,0.00,,,346
2014-5-30,113,102,90,72,56,43,47,23,6,29.71,29.67,29.62,10,9,7,16,8,,0.00,,,343
2014-5-31,109,100,91,70,61,48,44,26,12,29.68,29.63,29.59,9,8,6,16,6,,0.00,,,333